createdAt,value
2016-09-22T00:00:51.282Z,-49
2016-09-22T00:01:51.316Z,-49
2016-09-22T00:02:51.313Z,-50
2016-09-22T00:03:51.304Z,-49
2016-09-22T00:04:51.321Z,-51
2016-09-22T00:05:51.353Z,-53
2016-09-22T00:06:51.345Z,-52
2016-09-22T00:07:51.300Z,-54
2016-09-22T00:08:51.291Z,-52
2016-09-22T00:09:51.338Z,-54
2016-09-22T00:10:51.330Z,-50
2016-09-22T00:11:51.338Z,-50
2016-09-22T00:12:51.344Z,-52
2016-09-22T00:13:51.303Z,-53
2016-09-22T00:14:51.310Z,-53
2016-09-22T00:15:51.336Z,-52
2016-09-22T00:16:51.343Z,-53
2016-09-22T00:17:51.339Z,-53
2016-09-22T00:18:51.336Z,-53
2016-09-22T00:19:51.343Z,-48
2016-09-22T00:20:51.351Z,-48
2016-09-22T00:21:51.327Z,-49
2016-09-22T00:22:51.322Z,-49
2016-09-22T00:23:51.324Z,-49
2016-09-22T00:24:51.317Z,-49
2016-09-22T00:25:51.322Z,-49
2016-09-22T00:26:51.329Z,-49
2016-09-22T00:27:51.354Z,-52
2016-09-22T00:28:51.367Z,-53
2016-09-22T00:29:51.365Z,-52
2016-09-22T00:30:51.391Z,-54
2016-09-22T00:31:51.348Z,-53
2016-09-22T00:32:51.360Z,-53
2016-09-22T00:33:51.361Z,-52
2016-09-22T00:34:51.325Z,-53
2016-09-22T00:35:51.356Z,-50
2016-09-22T00:36:51.301Z,-50
2016-09-22T00:37:51.358Z,-50
2016-09-22T00:38:52.043Z,-51
2016-09-22T00:39:51.367Z,-53
2016-09-22T00:40:51.373Z,-53
2016-09-22T00:41:51.333Z,-52
2016-09-22T00:42:51.370Z,-51
2016-09-22T00:43:51.348Z,-51
2016-09-22T00:44:51.353Z,-50
2016-09-22T00:45:51.361Z,-51
2016-09-22T00:46:51.361Z,-50
2016-09-22T00:47:51.390Z,-50
2016-09-22T00:49:04.369Z,-50
2016-09-22T00:50:06.218Z,-50
2016-09-22T00:50:56.851Z,-49
2016-09-22T00:52:04.131Z,-51
2016-09-22T00:53:05.907Z,-50
2016-09-22T00:54:05.295Z,-50
2016-09-22T00:55:06.116Z,-51
2016-09-22T00:56:05.677Z,-50
2016-09-22T00:57:06.178Z,-51
2016-09-22T00:58:06.574Z,-52
2016-09-22T00:59:05.453Z,-51
2016-09-22T01:00:04.939Z,-51
2016-09-22T01:01:04.901Z,-51
2016-09-22T01:02:05.677Z,-52
2016-09-22T01:03:08.258Z,-51
2016-09-22T01:04:06.722Z,-50
2016-09-22T01:05:02.321Z,-51
2016-09-22T01:05:51.323Z,-51
2016-09-22T01:06:51.328Z,-51
2016-09-22T01:07:51.393Z,-52
2016-09-22T01:08:51.371Z,-52
2016-09-22T01:09:51.336Z,-54
2016-09-22T01:10:51.374Z,-50
2016-09-22T01:11:51.332Z,-50
2016-09-22T01:12:51.406Z,-50
2016-09-22T01:13:51.360Z,-50
2016-09-22T01:14:51.365Z,-51
2016-09-22T01:15:51.357Z,-50
2016-09-22T01:16:51.372Z,-51
2016-09-22T01:17:51.393Z,-51
2016-09-22T01:18:51.367Z,-50
2016-09-22T01:19:51.390Z,-53
2016-09-22T01:20:51.406Z,-53
2016-09-22T01:21:51.383Z,-51
2016-09-22T01:22:51.419Z,-53
2016-09-22T01:23:51.412Z,-53
2016-09-22T01:24:51.463Z,-52
2016-09-22T01:25:51.368Z,-52
2016-09-22T01:26:51.374Z,-53
2016-09-22T01:27:51.391Z,-51
2016-09-22T01:28:51.378Z,-51
2016-09-22T01:29:51.371Z,-51
2016-09-22T01:30:51.358Z,-51
2016-09-22T01:31:51.368Z,-52
2016-09-22T01:32:51.400Z,-50
2016-09-22T01:33:51.380Z,-51
2016-09-22T01:34:51.386Z,-52
2016-09-22T01:35:51.391Z,-51
2016-09-22T01:36:51.428Z,-51
2016-09-22T01:37:51.399Z,-51
2016-09-22T01:38:51.384Z,-52
2016-09-22T01:39:51.406Z,-52
2016-09-22T01:40:51.396Z,-51
2016-09-22T01:41:51.401Z,-53
2016-09-22T01:42:51.447Z,-53
2016-09-22T01:43:51.420Z,-52
2016-09-22T01:44:51.410Z,-52
2016-09-22T01:45:51.400Z,-53
2016-09-22T01:46:51.393Z,-52
2016-09-22T01:47:51.409Z,-52
2016-09-22T01:48:51.467Z,-53
2016-09-22T01:49:51.399Z,-54
2016-09-22T01:50:51.433Z,-53
2016-09-22T01:51:51.390Z,-51
2016-09-22T01:52:51.419Z,-51
2016-09-22T01:53:51.436Z,-50
2016-09-22T01:54:51.402Z,-50
2016-09-22T01:55:51.427Z,-50
2016-09-22T01:56:51.427Z,-51
2016-09-22T01:57:51.411Z,-51
2016-09-22T01:58:51.412Z,-51
2016-09-22T01:59:51.446Z,-51
2016-09-22T02:00:51.434Z,-51
2016-09-22T02:01:51.369Z,-51
2016-09-22T02:02:51.400Z,-51
2016-09-22T02:03:51.424Z,-51
2016-09-22T02:04:51.409Z,-48
2016-09-22T02:05:51.389Z,-49
2016-09-22T02:06:51.420Z,-48
2016-09-22T02:07:51.415Z,-50
2016-09-22T02:08:51.416Z,-50
2016-09-22T02:09:51.405Z,-49
2016-09-22T02:10:51.416Z,-50
2016-09-22T02:11:51.393Z,-50
2016-09-22T02:12:51.385Z,-50
2016-09-22T02:13:51.427Z,-54
2016-09-22T02:14:51.463Z,-53
2016-09-22T02:15:51.424Z,-54
2016-09-22T02:16:51.419Z,-53
2016-09-22T02:17:51.431Z,-53
2016-09-22T02:18:51.442Z,-53
2016-09-22T02:19:51.423Z,-51
2016-09-22T02:20:51.420Z,-51
2016-09-22T02:21:51.500Z,-52
2016-09-22T02:22:51.447Z,-52
2016-09-22T02:23:51.416Z,-50
2016-09-22T02:24:51.416Z,-48
2016-09-22T02:25:51.413Z,-50
2016-09-22T02:26:51.483Z,-54
2016-09-22T02:27:51.419Z,-50
2016-09-22T02:28:51.434Z,-51
2016-09-22T02:29:51.421Z,-51
2016-09-22T02:30:51.439Z,-50
2016-09-22T02:31:51.451Z,-51
2016-09-22T02:32:51.447Z,-50
2016-09-22T02:33:51.435Z,-54
2016-09-22T02:34:51.427Z,-52
2016-09-22T02:35:51.402Z,-51
2016-09-22T02:36:51.420Z,-52
2016-09-22T02:37:51.413Z,-48
2016-09-22T02:38:51.382Z,-49
2016-09-22T02:39:51.418Z,-49
2016-09-22T02:40:51.417Z,-51
2016-09-22T02:41:51.455Z,-51
2016-09-22T02:42:51.455Z,-50
2016-09-22T02:43:51.436Z,-51
2016-09-22T02:44:51.455Z,-51
2016-09-22T02:45:51.497Z,-51
2016-09-22T02:46:51.491Z,-52
2016-09-22T02:47:51.497Z,-51
2016-09-22T02:48:51.459Z,-49
2016-09-22T02:49:51.451Z,-49
2016-09-22T02:50:51.450Z,-46
2016-09-22T02:51:51.429Z,-49
2016-09-22T02:52:51.476Z,-49
2016-09-22T02:53:51.424Z,-49
2016-09-22T02:54:51.434Z,-47
2016-09-22T02:55:51.442Z,-50
2016-09-22T02:56:51.398Z,-51
2016-09-22T02:57:51.468Z,-51
2016-09-22T02:58:51.429Z,-51
2016-09-22T02:59:51.439Z,-51
2016-09-22T03:00:51.442Z,-52
2016-09-22T03:01:51.415Z,-52
2016-09-22T03:02:51.455Z,-52
2016-09-22T03:03:51.407Z,-52
2016-09-22T03:04:51.442Z,-52
2016-09-22T03:05:51.400Z,-52
2016-09-22T03:06:51.481Z,-51
2016-09-22T03:07:51.435Z,-51
2016-09-22T03:08:51.439Z,-52
2016-09-22T03:09:51.432Z,-51
2016-09-22T03:10:51.409Z,-51
2016-09-22T03:11:51.485Z,-52
2016-09-22T03:12:51.458Z,-52
2016-09-22T03:13:51.463Z,-52
2016-09-22T03:14:51.497Z,-51
2016-09-22T03:15:51.490Z,-52
2016-09-22T03:16:51.474Z,-52
2016-09-22T03:17:51.470Z,-52
2016-09-22T03:18:51.464Z,-52
2016-09-22T03:19:51.427Z,-49
2016-09-22T03:20:51.454Z,-51
2016-09-22T03:21:51.480Z,-52
2016-09-22T03:22:51.436Z,-52
2016-09-22T03:23:51.441Z,-52
2016-09-22T03:24:51.460Z,-52
2016-09-22T03:25:51.453Z,-53
2016-09-22T03:26:51.442Z,-52
2016-09-22T03:27:51.477Z,-52
2016-09-22T03:28:51.447Z,-52
2016-09-22T03:29:51.493Z,-52
2016-09-22T03:30:51.470Z,-52
2016-09-22T03:31:51.445Z,-51
2016-09-22T03:32:51.480Z,-51
2016-09-22T03:33:51.510Z,-52
2016-09-22T03:34:51.471Z,-51
2016-09-22T03:35:51.500Z,-51
2016-09-22T03:36:51.501Z,-50
2016-09-22T03:37:51.471Z,-48
2016-09-22T03:38:51.454Z,-49
2016-09-22T03:39:51.447Z,-49
2016-09-22T03:40:51.460Z,-49
2016-09-22T03:41:51.486Z,-49
2016-09-22T03:42:51.480Z,-48
2016-09-22T03:43:51.496Z,-49
2016-09-22T03:44:51.512Z,-49
2016-09-22T03:45:51.518Z,-49
2016-09-22T03:46:51.466Z,-50
2016-09-22T03:47:51.491Z,-49
2016-09-22T03:48:51.494Z,-49
2016-09-22T03:49:51.501Z,-49
2016-09-22T03:50:51.526Z,-49
2016-09-22T03:51:51.517Z,-50
2016-09-22T03:52:51.510Z,-50
2016-09-22T03:53:51.472Z,-50
2016-09-22T03:54:51.492Z,-52
2016-09-22T03:55:51.545Z,-52
2016-09-22T03:56:51.497Z,-51
2016-09-22T03:57:51.517Z,-48
2016-09-22T03:58:51.519Z,-49
2016-09-22T03:59:51.480Z,-49
2016-09-22T04:00:51.496Z,-49
2016-09-22T04:01:51.514Z,-47
2016-09-22T04:02:51.527Z,-49
2016-09-22T04:03:51.551Z,-49
2016-09-22T04:04:51.496Z,-48
2016-09-22T04:05:51.472Z,-48
2016-09-22T04:06:51.507Z,-49
2016-09-22T04:07:51.497Z,-49
2016-09-22T04:08:51.517Z,-51
2016-09-22T04:09:51.511Z,-52
2016-09-22T04:10:51.546Z,-51
2016-09-22T04:11:51.537Z,-54
2016-09-22T04:12:51.490Z,-51
2016-09-22T04:13:51.522Z,-53
2016-09-22T04:14:51.514Z,-50
2016-09-22T04:15:51.507Z,-46
2016-09-22T04:16:51.487Z,-49
2016-09-22T04:17:51.504Z,-48
2016-09-22T04:18:51.524Z,-49
2016-09-22T04:19:51.503Z,-48
2016-09-22T04:20:51.537Z,-48
2016-09-22T04:21:51.515Z,-49
2016-09-22T04:22:52.415Z,-48
2016-09-22T04:23:51.516Z,-49
2016-09-22T04:24:51.516Z,-50
2016-09-22T04:25:51.564Z,-50
2016-09-22T04:26:51.567Z,-51
2016-09-22T04:27:51.548Z,-51
2016-09-22T04:28:51.557Z,-49
2016-09-22T04:29:51.518Z,-48
2016-09-22T04:30:51.570Z,-46
2016-09-22T04:31:51.574Z,-49
2016-09-22T04:32:51.572Z,-46
2016-09-22T04:33:51.631Z,-47
2016-09-22T04:34:51.617Z,-49
2016-09-22T04:35:51.545Z,-50
2016-09-22T04:36:51.535Z,-49
2016-09-22T04:37:51.522Z,-50
2016-09-22T04:38:51.642Z,-47
2016-09-22T04:39:51.541Z,-45
2016-09-22T04:40:51.519Z,-47
2016-09-22T04:41:51.577Z,-48
2016-09-22T04:42:51.552Z,-47
2016-09-22T04:43:51.664Z,-48
2016-09-22T04:44:51.562Z,-48
2016-09-22T04:45:51.524Z,-50
2016-09-22T04:46:51.565Z,-50
2016-09-22T04:47:51.482Z,-50
2016-09-22T04:48:51.533Z,-52
2016-09-22T04:49:51.565Z,-53
2016-09-22T04:50:51.556Z,-51
2016-09-22T04:51:51.575Z,-50
2016-09-22T04:52:51.509Z,-50
2016-09-22T04:53:51.515Z,-50
2016-09-22T04:54:51.558Z,-50
2016-09-22T04:55:51.548Z,-50
2016-09-22T04:56:51.573Z,-50
2016-09-22T04:57:51.565Z,-50
2016-09-22T04:58:51.535Z,-50
2016-09-22T04:59:51.628Z,-52
2016-09-22T05:00:51.542Z,-51
2016-09-22T05:01:51.574Z,-51
2016-09-22T05:02:51.499Z,-51
2016-09-22T05:03:51.519Z,-52
2016-09-22T05:04:51.560Z,-49
2016-09-22T05:05:51.505Z,-49
2016-09-22T05:06:51.564Z,-49
2016-09-22T05:07:51.505Z,-50
2016-09-22T05:08:51.539Z,-50
2016-09-22T05:09:51.533Z,-50
2016-09-22T05:10:51.521Z,-50
2016-09-22T05:11:51.539Z,-50
2016-09-22T05:12:51.540Z,-49
2016-09-22T05:13:51.550Z,-49
2016-09-22T05:14:51.557Z,-49
2016-09-22T05:15:52.840Z,-49
2016-09-22T05:16:51.539Z,-48
2016-09-22T05:17:51.551Z,-49
2016-09-22T05:18:51.595Z,-48
2016-09-22T05:19:51.586Z,-48
2016-09-22T05:20:51.555Z,-48
2016-09-22T05:21:51.556Z,-48
2016-09-22T05:22:51.562Z,-49
2016-09-22T05:23:51.599Z,-49
2016-09-22T05:24:51.605Z,-49
2016-09-22T05:25:51.541Z,-48
2016-09-22T05:26:51.589Z,-50
2016-09-22T05:27:51.537Z,-49
2016-09-22T05:28:51.546Z,-48
2016-09-22T05:29:51.551Z,-50
2016-09-22T05:30:51.622Z,-53
2016-09-22T05:31:51.607Z,-51
2016-09-22T05:32:51.619Z,-53
2016-09-22T05:33:51.598Z,-50
2016-09-22T05:34:51.612Z,-51
2016-09-22T05:35:51.644Z,-50
2016-09-22T05:36:51.623Z,-48
2016-09-22T05:37:51.620Z,-48
2016-09-22T05:38:51.613Z,-49
2016-09-22T05:39:51.610Z,-51
2016-09-22T05:40:51.606Z,-51
2016-09-22T05:41:51.607Z,-51
2016-09-22T05:42:51.585Z,-51
2016-09-22T05:43:51.671Z,-51
2016-09-22T05:44:51.631Z,-51
2016-09-22T05:45:51.623Z,-48
2016-09-22T05:46:51.618Z,-50
2016-09-22T05:47:51.586Z,-51
2016-09-22T05:48:51.585Z,-51
2016-09-22T05:49:51.568Z,-50
2016-09-22T05:50:52.537Z,-49
2016-09-22T05:51:51.659Z,-50
2016-09-22T05:52:51.605Z,-50
2016-09-22T05:53:51.607Z,-50
2016-09-22T05:54:51.583Z,-50
2016-09-22T05:55:51.613Z,-50
2016-09-22T05:56:51.605Z,-50
2016-09-22T05:57:51.574Z,-50
2016-09-22T05:58:51.562Z,-50
2016-09-22T05:59:51.555Z,-50
2016-09-22T06:00:51.582Z,-50
2016-09-22T06:01:52.530Z,-50
2016-09-22T06:02:51.590Z,-48
2016-09-22T06:03:51.611Z,-48
2016-09-22T06:04:51.598Z,-50
2016-09-22T06:05:51.608Z,-51
2016-09-22T06:06:51.621Z,-48
2016-09-22T06:07:51.643Z,-46
2016-09-22T06:08:51.595Z,-48
2016-09-22T06:09:51.597Z,-50
2016-09-22T06:10:51.601Z,-48
2016-09-22T06:11:51.594Z,-51
2016-09-22T06:12:51.638Z,-50
2016-09-22T06:13:51.603Z,-50
2016-09-22T06:14:51.575Z,-51
2016-09-22T06:15:51.632Z,-51
2016-09-22T06:16:51.608Z,-50
2016-09-22T06:17:51.570Z,-48
2016-09-22T06:18:51.554Z,-47
2016-09-22T06:19:51.599Z,-49
2016-09-22T06:20:51.549Z,-48
2016-09-22T06:21:51.659Z,-48
2016-09-22T06:22:51.593Z,-48
2016-09-22T06:23:51.579Z,-51
2016-09-22T06:24:51.609Z,-48
2016-09-22T06:25:51.579Z,-48
2016-09-22T06:26:51.620Z,-50
2016-09-22T06:27:51.566Z,-50
2016-09-22T06:28:51.632Z,-48
2016-09-22T06:29:51.656Z,-48
2016-09-22T06:30:51.714Z,-48
2016-09-22T06:31:51.624Z,-48
2016-09-22T06:32:51.637Z,-48
2016-09-22T06:33:51.689Z,-48
2016-09-22T06:34:51.652Z,-49
2016-09-22T06:35:51.597Z,-48
2016-09-22T06:36:51.605Z,-50
2016-09-22T06:37:51.674Z,-48
2016-09-22T06:38:51.631Z,-48
2016-09-22T06:39:51.655Z,-49
2016-09-22T06:40:51.623Z,-49
2016-09-22T06:41:51.582Z,-49
2016-09-22T06:42:51.631Z,-50
2016-09-22T06:43:51.680Z,-51
2016-09-22T06:44:51.695Z,-51
2016-09-22T06:45:51.653Z,-51
2016-09-22T06:46:51.673Z,-51
2016-09-22T06:47:51.728Z,-51
2016-09-22T06:48:51.673Z,-49
2016-09-22T06:49:51.676Z,-48
2016-09-22T06:50:51.698Z,-48
2016-09-22T06:51:51.641Z,-48
2016-09-22T06:52:51.683Z,-46
2016-09-22T06:53:51.662Z,-49
2016-09-22T06:54:51.618Z,-49
2016-09-22T06:55:51.765Z,-50
2016-09-22T06:56:51.650Z,-52
2016-09-22T06:57:51.613Z,-52
2016-09-22T06:58:51.679Z,-52
2016-09-22T06:59:51.654Z,-49
2016-09-22T07:00:51.631Z,-50
2016-09-22T07:01:51.628Z,-49
2016-09-22T07:02:51.673Z,-50
2016-09-22T07:03:51.659Z,-48
2016-09-22T07:04:51.619Z,-47
2016-09-22T07:05:51.648Z,-51
2016-09-22T07:06:51.654Z,-50
2016-09-22T07:07:51.674Z,-48
2016-09-22T07:08:51.673Z,-50
2016-09-22T07:09:51.653Z,-50
2016-09-22T07:10:51.631Z,-51
2016-09-22T07:11:51.654Z,-49
2016-09-22T07:12:52.309Z,-49
2016-09-22T07:13:52.369Z,-52
2016-09-22T07:14:51.668Z,-52
2016-09-22T07:15:51.674Z,-52
2016-09-22T07:16:51.659Z,-49
2016-09-22T07:17:51.645Z,-49
2016-09-22T07:18:51.647Z,-51
2016-09-22T07:19:51.684Z,-53
2016-09-22T07:20:51.698Z,-54
2016-09-22T07:21:51.676Z,-51
2016-09-22T07:22:51.717Z,-53
2016-09-22T07:23:51.678Z,-53
2016-09-22T07:24:51.654Z,-52
2016-09-22T07:25:52.233Z,-50
2016-09-22T07:26:51.686Z,-50
2016-09-22T07:27:51.615Z,-50
2016-09-22T07:28:51.671Z,-51
2016-09-22T07:29:51.598Z,-49
2016-09-22T07:30:51.714Z,-51
2016-09-22T07:31:51.660Z,-50
2016-09-22T07:32:51.661Z,-50
2016-09-22T07:33:51.665Z,-50
2016-09-22T07:34:51.653Z,-50
2016-09-22T07:35:51.652Z,-51
2016-09-22T07:36:51.618Z,-50
2016-09-22T07:37:51.652Z,-50
2016-09-22T07:38:51.661Z,-50
2016-09-22T07:39:51.637Z,-50
2016-09-22T07:40:51.643Z,-51
2016-09-22T07:41:51.680Z,-50
2016-09-22T07:42:51.672Z,-51
2016-09-22T07:43:51.667Z,-50
2016-09-22T07:44:52.108Z,-52
2016-09-22T07:45:51.667Z,-53
2016-09-22T07:46:51.682Z,-53
2016-09-22T07:47:51.663Z,-53
2016-09-22T07:48:51.680Z,-52
2016-09-22T07:49:51.688Z,-53
2016-09-22T07:50:51.697Z,-53
2016-09-22T07:51:51.676Z,-53
2016-09-22T07:52:51.686Z,-50
2016-09-22T07:53:51.673Z,-52
2016-09-22T07:54:51.708Z,-52
2016-09-22T07:55:51.701Z,-53
2016-09-22T07:56:51.681Z,-52
2016-09-22T07:57:51.676Z,-53
2016-09-22T07:58:51.693Z,-52
2016-09-22T07:59:51.699Z,-50
2016-09-22T08:00:51.677Z,-52
2016-09-22T08:01:51.654Z,-53
2016-09-22T08:02:51.684Z,-50
2016-09-22T08:03:51.717Z,-49
2016-09-22T08:04:51.688Z,-53
2016-09-22T08:05:51.782Z,-52
2016-09-22T08:06:51.670Z,-51
2016-09-22T08:07:51.699Z,-52
2016-09-22T08:08:51.660Z,-51
2016-09-22T08:09:51.694Z,-51
2016-09-22T08:10:51.688Z,-48
2016-09-22T08:11:51.690Z,-49
2016-09-22T08:12:51.760Z,-48
2016-09-22T08:13:51.695Z,-49
2016-09-22T08:14:51.744Z,-48
2016-09-22T08:15:51.753Z,-45
2016-09-22T08:16:51.700Z,-49
2016-09-22T08:17:51.756Z,-49
2016-09-22T08:18:51.726Z,-49
2016-09-22T08:19:51.715Z,-48
2016-09-22T08:20:51.725Z,-48
2016-09-22T08:21:51.715Z,-49
2016-09-22T08:22:51.713Z,-49
2016-09-22T08:23:51.696Z,-48
2016-09-22T08:24:51.711Z,-51
2016-09-22T08:25:51.719Z,-50
2016-09-22T08:26:51.684Z,-50
2016-09-22T08:27:51.720Z,-48
2016-09-22T08:28:51.725Z,-49
2016-09-22T08:29:51.783Z,-51
2016-09-22T08:30:51.695Z,-51
2016-09-22T08:31:51.712Z,-51
2016-09-22T08:32:51.714Z,-50
2016-09-22T08:33:51.695Z,-49
2016-09-22T08:34:51.717Z,-49
2016-09-22T08:35:51.717Z,-49
2016-09-22T08:36:51.690Z,-50
2016-09-22T08:37:51.690Z,-50
2016-09-22T08:38:51.695Z,-50
2016-09-22T08:39:51.712Z,-50
2016-09-22T08:40:51.719Z,-50
2016-09-22T08:41:51.682Z,-50
2016-09-22T08:42:51.716Z,-50
2016-09-22T08:43:51.716Z,-51
2016-09-22T08:44:51.747Z,-51
2016-09-22T08:45:51.701Z,-50
2016-09-22T08:46:51.715Z,-50
2016-09-22T08:47:51.699Z,-50
2016-09-22T08:48:51.753Z,-51
2016-09-22T08:49:51.742Z,-50
2016-09-22T08:50:51.682Z,-50
2016-09-22T08:51:51.695Z,-50
2016-09-22T08:52:51.856Z,-50
2016-09-22T08:53:51.728Z,-53
2016-09-22T08:54:51.810Z,-51
2016-09-22T08:55:51.779Z,-51
2016-09-22T08:56:51.792Z,-52
2016-09-22T08:57:51.776Z,-52
2016-09-22T08:58:51.751Z,-53
2016-09-22T08:59:51.797Z,-53
2016-09-22T09:00:51.744Z,-52
2016-09-22T09:01:51.721Z,-50
2016-09-22T09:02:51.714Z,-50
2016-09-22T09:03:51.753Z,-53
2016-09-22T09:04:51.765Z,-53
2016-09-22T09:05:51.755Z,-49
2016-09-22T09:06:51.810Z,-52
2016-09-22T09:07:51.745Z,-53
2016-09-22T09:08:51.746Z,-52
2016-09-22T09:09:51.730Z,-52
2016-09-22T09:10:51.813Z,-51
2016-09-22T09:11:51.724Z,-50
2016-09-22T09:12:51.724Z,-51
2016-09-22T09:13:51.837Z,-51
2016-09-22T09:14:51.720Z,-52
2016-09-22T09:15:51.741Z,-51
2016-09-22T09:16:51.778Z,-51
2016-09-22T09:17:51.749Z,-52
2016-09-22T09:18:51.752Z,-50
2016-09-22T09:19:51.766Z,-53
2016-09-22T09:20:51.739Z,-52
2016-09-22T09:21:51.766Z,-51
2016-09-22T09:22:51.793Z,-50
2016-09-22T09:23:51.749Z,-52
2016-09-22T09:24:51.809Z,-50
2016-09-22T09:25:51.802Z,-50
2016-09-22T09:26:51.759Z,-50
2016-09-22T09:27:51.800Z,-48
2016-09-22T09:28:51.836Z,-49
2016-09-22T09:29:51.765Z,-49
2016-09-22T09:30:51.803Z,-49
2016-09-22T09:31:51.730Z,-49
2016-09-22T09:32:51.795Z,-49
2016-09-22T09:33:51.787Z,-49
2016-09-22T09:34:51.767Z,-49
2016-09-22T09:35:52.418Z,-49
2016-09-22T09:36:51.771Z,-48
2016-09-22T09:37:51.986Z,-48
2016-09-22T09:38:51.781Z,-48
2016-09-22T09:39:51.761Z,-49
2016-09-22T09:40:51.796Z,-49
2016-09-22T09:41:51.868Z,-49
2016-09-22T09:42:51.794Z,-50
2016-09-22T09:43:51.754Z,-50
2016-09-22T09:44:51.776Z,-50
2016-09-22T09:45:51.809Z,-49
2016-09-22T09:46:51.848Z,-49
2016-09-22T09:47:51.752Z,-51
2016-09-22T09:48:51.761Z,-52
2016-09-22T09:49:51.811Z,-52
2016-09-22T09:50:51.808Z,-51
2016-09-22T09:51:51.775Z,-52
2016-09-22T09:52:51.786Z,-50
2016-09-22T09:53:51.805Z,-50
2016-09-22T09:54:51.765Z,-49
2016-09-22T09:55:51.774Z,-48
2016-09-22T09:56:51.742Z,-49
2016-09-22T09:57:51.782Z,-48
2016-09-22T09:58:51.838Z,-48
2016-09-22T09:59:51.815Z,-48
2016-09-22T10:00:51.803Z,-48
2016-09-22T10:01:51.798Z,-48
2016-09-22T10:02:51.806Z,-49
2016-09-22T10:03:51.800Z,-48
2016-09-22T10:04:51.830Z,-49
2016-09-22T10:05:51.834Z,-48
2016-09-22T10:06:51.754Z,-49
2016-09-22T10:07:51.833Z,-46
2016-09-22T10:08:51.797Z,-49
2016-09-22T10:09:51.824Z,-51
2016-09-22T10:10:51.833Z,-51
2016-09-22T10:11:51.811Z,-48
2016-09-22T10:12:51.859Z,-49
2016-09-22T10:13:51.776Z,-50
2016-09-22T10:14:51.809Z,-50
2016-09-22T10:15:51.836Z,-49
2016-09-22T10:16:51.825Z,-50
2016-09-22T10:17:51.809Z,-50
2016-09-22T10:18:51.817Z,-51
2016-09-22T10:19:51.818Z,-50
2016-09-22T10:20:51.795Z,-51
2016-09-22T10:21:51.850Z,-50
2016-09-22T10:22:51.843Z,-50
2016-09-22T10:23:51.908Z,-50
2016-09-22T10:24:51.897Z,-50
2016-09-22T10:25:51.800Z,-51
2016-09-22T10:26:51.824Z,-48
2016-09-22T10:27:51.829Z,-50
2016-09-22T10:28:51.825Z,-50
2016-09-22T10:29:51.816Z,-51
2016-09-22T10:30:51.837Z,-51
2016-09-22T10:31:51.814Z,-51
2016-09-22T10:32:51.819Z,-50
2016-09-22T10:33:51.828Z,-51
2016-09-22T10:34:51.834Z,-50
2016-09-22T10:35:51.813Z,-50
2016-09-22T10:36:51.792Z,-50
2016-09-22T10:37:51.924Z,-51
2016-09-22T10:38:51.844Z,-50
2016-09-22T10:39:51.923Z,-51
2016-09-22T10:40:51.848Z,-48
2016-09-22T10:41:51.866Z,-48
2016-09-22T10:42:51.956Z,-50
2016-09-22T10:43:51.832Z,-50
2016-09-22T10:44:51.856Z,-48
2016-09-22T10:45:51.837Z,-50
2016-09-22T10:46:51.836Z,-49
2016-09-22T10:47:51.877Z,-49
2016-09-22T10:48:51.845Z,-51
2016-09-22T10:49:51.825Z,-50
2016-09-22T10:50:51.847Z,-51
2016-09-22T10:51:51.803Z,-50
2016-09-22T10:52:51.869Z,-50
2016-09-22T10:53:51.834Z,-50
2016-09-22T10:54:51.808Z,-50
2016-09-22T10:55:51.810Z,-50
2016-09-22T10:56:51.893Z,-52
2016-09-22T10:57:51.858Z,-53
2016-09-22T10:58:51.848Z,-54
2016-09-22T10:59:51.854Z,-54
2016-09-22T11:00:51.818Z,-53
2016-09-22T11:01:51.838Z,-54
2016-09-22T11:02:51.829Z,-54
2016-09-22T11:03:51.853Z,-55
2016-09-22T11:04:51.871Z,-52
2016-09-22T11:05:51.808Z,-50
2016-09-22T11:06:51.866Z,-51
2016-09-22T11:07:51.845Z,-48
2016-09-22T11:08:51.835Z,-50
2016-09-22T11:09:51.878Z,-50
2016-09-22T11:10:51.834Z,-50
2016-09-22T11:11:51.846Z,-50
2016-09-22T11:12:51.870Z,-50
2016-09-22T11:13:51.876Z,-48
2016-09-22T11:14:51.864Z,-50
2016-09-22T11:15:51.882Z,-51
2016-09-22T11:16:51.898Z,-52
2016-09-22T11:17:51.888Z,-48
2016-09-22T11:18:51.847Z,-49
2016-09-22T11:19:51.869Z,-49
2016-09-22T11:20:51.886Z,-48
2016-09-22T11:21:51.860Z,-50
2016-09-22T11:22:51.844Z,-50
2016-09-22T11:23:51.895Z,-47
2016-09-22T11:24:51.868Z,-49
2016-09-22T11:25:51.876Z,-49
2016-09-22T11:26:51.896Z,-49
2016-09-22T11:27:52.283Z,-52
2016-09-22T11:28:52.214Z,-51
2016-09-22T11:29:51.886Z,-51
2016-09-22T11:30:51.882Z,-50
2016-09-22T11:31:51.858Z,-50
2016-09-22T11:32:51.896Z,-53
2016-09-22T11:33:51.861Z,-53
2016-09-22T11:34:51.924Z,-53
2016-09-22T11:35:52.407Z,-52
2016-09-22T11:36:52.788Z,-53
2016-09-22T11:37:52.406Z,-53
2016-09-22T11:38:52.765Z,-52
2016-09-22T11:39:52.028Z,-51
2016-09-22T11:40:52.584Z,-51
2016-09-22T11:41:52.568Z,-51
2016-09-22T11:42:51.943Z,-48
2016-09-22T11:43:52.786Z,-51
2016-09-22T11:44:52.861Z,-54
2016-09-22T11:45:52.389Z,-51
2016-09-22T11:46:52.428Z,-52
2016-09-22T11:47:52.515Z,-50
2016-09-22T11:48:52.175Z,-48
2016-09-22T11:49:51.874Z,-48
2016-09-22T11:50:51.919Z,-55
2016-09-22T11:51:51.905Z,-53
2016-09-22T11:52:51.898Z,-51
2016-09-22T11:53:51.883Z,-53
2016-09-22T11:54:52.309Z,-53
2016-09-22T11:55:53.842Z,-53
2016-09-22T11:56:51.910Z,-51
2016-09-22T11:57:51.939Z,-50
2016-09-22T11:58:55.361Z,-53
2016-09-22T11:59:52.243Z,-51
2016-09-22T12:00:51.927Z,-51
2016-09-22T12:01:51.939Z,-51
2016-09-22T12:02:52.880Z,-49
2016-09-22T12:03:51.907Z,-51
2016-09-22T12:04:52.496Z,-50
2016-09-22T12:05:51.936Z,-49
2016-09-22T12:06:51.918Z,-49
2016-09-22T12:07:52.064Z,-50
2016-09-22T12:08:51.924Z,-50
2016-09-22T12:09:51.889Z,-49
2016-09-22T12:10:51.929Z,-51
2016-09-22T12:11:51.913Z,-49
2016-09-22T12:12:51.934Z,-49
2016-09-22T12:13:51.921Z,-52
2016-09-22T12:14:51.933Z,-52
2016-09-22T12:15:51.924Z,-52
2016-09-22T12:16:51.964Z,-49
2016-09-22T12:17:51.927Z,-49
2016-09-22T12:18:51.889Z,-49
2016-09-22T12:19:51.924Z,-49
2016-09-22T12:20:51.947Z,-49
2016-09-22T12:21:51.939Z,-49
2016-09-22T12:22:51.900Z,-51
2016-09-22T12:23:51.949Z,-51
2016-09-22T12:24:51.932Z,-51
2016-09-22T12:25:51.937Z,-51
2016-09-22T12:26:52.017Z,-50
2016-09-22T12:27:51.961Z,-50
2016-09-22T12:28:51.983Z,-51
2016-09-22T12:29:51.963Z,-49
2016-09-22T12:30:51.960Z,-49
2016-09-22T12:31:51.947Z,-49
2016-09-22T12:32:51.956Z,-49
2016-09-22T12:33:51.944Z,-51
2016-09-22T12:34:51.968Z,-53
2016-09-22T12:35:51.999Z,-51
2016-09-22T12:36:52.064Z,-51
2016-09-22T12:37:51.976Z,-49
2016-09-22T12:38:51.983Z,-51
2016-09-22T12:39:51.989Z,-48
2016-09-22T12:40:51.969Z,-48
2016-09-22T12:41:51.983Z,-49
2016-09-22T12:42:51.985Z,-51
2016-09-22T12:43:52.000Z,-51
2016-09-22T12:44:51.995Z,-49
2016-09-22T12:45:51.994Z,-49
2016-09-22T12:46:52.020Z,-46
2016-09-22T12:47:52.022Z,-49
2016-09-22T12:48:52.054Z,-49
2016-09-22T12:49:51.961Z,-48
2016-09-22T12:50:52.729Z,-49
2016-09-22T12:51:51.988Z,-49
2016-09-22T12:52:52.029Z,-49
2016-09-22T12:53:51.964Z,-49
2016-09-22T12:54:51.996Z,-49
2016-09-22T12:55:51.959Z,-49
2016-09-22T12:56:51.959Z,-50
2016-09-22T12:57:51.957Z,-49
2016-09-22T12:58:51.978Z,-47
2016-09-22T12:59:51.956Z,-49
2016-09-22T13:00:52.026Z,-48
2016-09-22T13:01:52.026Z,-48
2016-09-22T13:02:52.029Z,-48
2016-09-22T13:03:51.990Z,-47
2016-09-22T13:04:52.005Z,-49
2016-09-22T13:05:52.489Z,-49
2016-09-22T13:06:54.356Z,-50
2016-09-22T13:07:52.856Z,-50
2016-09-22T13:08:52.040Z,-50
2016-09-22T13:09:52.055Z,-51
2016-09-22T13:10:52.068Z,-50
2016-09-22T13:11:52.033Z,-51
2016-09-22T13:12:52.061Z,-50
2016-09-22T13:13:52.087Z,-50
2016-09-22T13:14:51.991Z,-49
2016-09-22T13:15:52.001Z,-50
2016-09-22T13:16:51.977Z,-51
2016-09-22T13:17:52.026Z,-50
2016-09-22T13:18:52.061Z,-50
2016-09-22T13:19:52.055Z,-50
2016-09-22T13:20:52.109Z,-50
2016-09-22T13:21:52.016Z,-52
2016-09-22T13:22:52.090Z,-50
2016-09-22T13:23:52.022Z,-53
2016-09-22T13:24:52.023Z,-48
2016-09-22T13:25:52.041Z,-51
2016-09-22T13:26:52.017Z,-50
2016-09-22T13:27:51.998Z,-52
2016-09-22T13:28:52.004Z,-52
2016-09-22T13:29:52.067Z,-52
2016-09-22T13:30:51.975Z,-53
2016-09-22T13:31:52.117Z,-53
2016-09-22T13:32:52.032Z,-52
2016-09-22T13:33:52.029Z,-50
2016-09-22T13:34:52.059Z,-53
2016-09-22T13:35:52.006Z,-54
2016-09-22T13:36:52.029Z,-53
2016-09-22T13:37:52.062Z,-50
2016-09-22T13:38:52.114Z,-53
2016-09-22T13:39:52.081Z,-53
2016-09-22T13:40:52.088Z,-51
2016-09-22T13:41:52.073Z,-51
2016-09-22T13:42:52.096Z,-54
2016-09-22T13:43:52.058Z,-51
2016-09-22T13:44:52.087Z,-51
2016-09-22T13:45:52.138Z,-51
2016-09-22T13:46:52.082Z,-50